Latest Weather Observations for Bendigo

IDV60801

Issued at 8:02 pm EST Saturday 23 May 2015 (issued every 30 minutes, with the page automatically refreshed every 10 minutes)

About weather observations | Map of weather stations | Latest weather observations for VIC | Other Formats
Station Details ID: 081123 Name: BENDIGO AIRPORT Lat: -36.74 Lon: 144.33 Height: 208.0 m
Data from the previous 72 hours. | See also: Recent months at Bendigo
Date/Time
EST
Temp
°C
App
Temp
°C
Dew
Point
Rel
Hum
%
Delta-T
°C
Wind Press
QNH
hPa
Press
MSL
hPa
Rain
since 9 am
mm
Dir
 
Spd
km/h
Gust
km/h
Spd
kts
Gust
kts
23/08:00pm 3.9 2.3 2.3 89 0.6 CALM 0 0 0 0 1030.4 1030.6 0.0
23/07:30pm 6.1 4.8 4.1 87 0.9 CALM 0 0 0 0 1030.4 1030.6 0.0
23/07:00pm 6.3 4.2 4.1 86 0.9 SE 4 7 2 4 1030.2 1030.4 0.0
23/06:30pm 7.1 4.6 3.9 80 1.4 SSE 6 7 3 4 1030.1 1030.3 0.0
23/06:00pm 8.6 5.7 4.6 76 1.8 SE 9 13 5 7 1029.9 1030.1 0.0
23/05:30pm 10.2 9.1 5.2 71 2.3 CALM 0 0 0 0 1029.6 1029.8 0.0
23/05:00pm 14.4 13.4 5.5 55 4.2 CALM 0 0 0 0 1029.6 1029.8 0.0
23/04:30pm 15.4 14.2 4.5 48 5.1 CALM 0 6 0 3 1029.5 1029.7 0.0
23/04:00pm 15.7 13.8 4.7 48 5.2 SE 4 9 2 5 1029.6 1029.8 0.0
23/03:30pm 15.9 13.3 4.3 46 5.5 E 7 11 4 6 1029.6 1029.8 0.0
23/03:00pm 16.2 14.6 4.6 46 5.5 SSW 2 7 1 4 1029.6 1029.8 0.0
23/02:30pm 15.4 12.5 4.5 48 5.1 ESE 9 15 5 8 1029.8 1030.0 0.0
23/02:00pm 15.2 11.9 4.3 48 5.1 SSE 11 15 6 8 1029.7 1029.9 0.0
23/01:30pm 14.9 12.0 4.6 50 4.8 SE 9 17 5 9 1029.9 1030.1 0.0
23/01:00pm 14.0 11.5 3.8 50 4.6 SSE 6 13 3 7 1030.2 1030.4 0.0
23/12:30pm 13.2 10.9 4.6 56 4.0 SE 6 11 3 6 1030.7 1030.9 0.0
23/12:00pm 12.4 9.9 4.9 60 3.5 SSE 7 11 4 6 1031.2 1031.4 0.0
23/11:30am 11.6 9.0 4.1 60 3.4 SSE 7 11 4 6 1031.6 1031.9 0.0
23/11:00am 11.2 8.3 4.9 65 2.9 SE 9 17 5 9 1031.8 1032.1 0.0
23/10:00am 9.4 5.7 4.2 70 2.3 SSE 13 15 7 8 1032.2 1032.4 0.0
23/09:30am 8.6 5.7 4.8 77 1.7 SSE 9 11 5 6 1032.1 1032.3 0.0
23/09:00am 7.4 3.4 4.7 83 1.2 SSE 15 19 8 10 1031.7 1032.0 0.0
23/08:30am 4.9 1.3 4.8 99 0.0 S 13 15 7 8 1031.5 1031.7 0.0
23/08:00am 0.4 -1.6 0.1 98 0.1 CALM 0 0 0 0 1031.5 1031.7 0.0
23/07:40am 1.2 -0.6 1.1 99 0.0 CALM 0 7 0 4 1031.2 1031.4 0.0
23/07:30am 0.3 -2.4 0.0 98 0.1 SSW 4 7 2 4 1031.1 1031.3 0.0
23/07:15am 0.2 -1.8 -0.1 98 0.1 CALM 0 0 0 0 1031.0 1031.2 0.0
23/07:00am 0.6 -1.3 0.3 98 0.1 CALM 0 0 0 0 1030.8 1031.0 0.0
23/06:30am 1.0 -2.2 0.7 98 0.1 S 7 15 4 8 1030.3 1030.5 0.0
23/06:00am 0.3 -2.4 0.0 98 0.1 SSE 4 9 2 5 1030.1 1030.3 0.0
23/05:30am 0.2 -1.8 -0.1 98 0.1 CALM 0 0 0 0 1030.0 1030.2 0.0
23/05:00am 1.0 -0.9 0.7 98 0.1 CALM 0 0 0 0 1030.0 1030.2 0.0
23/04:30am 0.0 -2.0 -0.4 97 0.1 CALM 0 0 0 0 1029.9 1030.1 0.0
23/04:18am 0.6 -1.3 0.3 98 0.1 CALM 0 0 0 0 1029.9 1030.1 0.0
23/04:00am -0.1 -2.2 -0.7 96 0.2 CALM 0 0 0 0 1029.9 1030.1 0.0
23/03:46am 0.7 -1.3 0.1 96 0.2 CALM 0 0 0 0 1029.8 1030.0 0.0
23/03:30am 1.7 -0.1 1.1 96 0.2 CALM 0 0 0 0 1029.8 1030.0 0.0
23/03:00am 1.9 0.1 1.3 96 0.2 CALM 0 0 0 0 1029.9 1030.1 0.0
23/02:30am 2.0 -0.2 1.3 95 0.3 WSW 2 6 1 3 1030.0 1030.2 0.0
23/02:00am 1.7 -1.3 1.1 96 0.2 S 6 9 3 5 1029.8 1030.0 0.0
23/01:30am 1.4 -0.5 0.4 93 0.4 CALM 0 0 0 0 1030.0 1030.2 0.0
23/01:00am 2.5 0.7 1.3 92 0.5 CALM 0 0 0 0 1030.1 1030.3 0.0
23/12:30am 3.9 2.3 2.4 90 0.6 CALM 0 0 0 0 1030.3 1030.5 0.0
23/12:00am 4.2 0.9 2.6 89 0.6 S 9 11 5 6 1030.4 1030.6 0.0
 
Date/Time
EST
Temp
°C
App
Temp
°C
Dew
Point
Rel
Hum
%
Delta-T
°C
Wind Press
QNH
hPa
Press
MSL
hPa
Rain
since 9 am
mm
Dir
 
Spd
km/h
Gust
km/h
Spd
kts
Gust
kts
22/11:30pm 5.9 3.2 3.7 86 0.9 SSW 7 11 4 6 1030.6 1030.8 0.0
22/11:00pm 7.5 5.1 4.1 79 1.5 SW 6 9 3 5 1030.6 1030.8 0.0
22/10:30pm 7.5 4.5 3.9 78 1.6 SSW 9 17 5 9 1030.6 1030.8 0.0
22/10:00pm 8.4 4.3 4.4 76 1.8 S 15 22 8 12 1030.5 1030.7 0.0
22/09:30pm 8.7 4.3 4.5 75 1.9 S 17 24 9 13 1030.4 1030.6 0.0
22/09:00pm 9.4 6.6 5.2 75 1.9 S 9 15 5 8 1030.4 1030.6 0.0
22/08:30pm 9.3 6.5 5.3 76 1.8 S 9 17 5 9 1030.2 1030.4 0.0
22/08:00pm 8.3 5.3 4.3 76 1.8 S 9 13 5 7 1030.0 1030.2 0.0
22/07:30pm 8.9 5.6 4.3 73 2.0 S 11 20 6 11 1029.9 1030.1 0.0
22/07:00pm 9.1 6.2 4.5 73 2.0 S 9 15 5 8 1029.8 1030.0 0.0
22/06:30pm 9.8 6.9 4.8 71 2.3 SSW 9 17 5 9 1029.6 1029.8 0.0
22/06:00pm 10.3 6.4 5.3 71 2.3 SSE 15 20 8 11 1029.2 1029.4 0.0
22/05:30pm 10.9 6.6 5.2 68 2.6 SSE 17 24 9 13 1028.8 1029.0 0.0
22/05:00pm 11.6 6.1 5.7 67 2.8 SSE 24 35 13 19 1028.6 1028.8 0.0
22/04:30pm 12.6 6.7 5.8 63 3.2 SSE 26 37 14 20 1028.3 1028.5 0.0
22/04:00pm 13.3 6.8 6.4 63 3.3 S 30 39 16 21 1028.0 1028.2 0.0
22/03:30pm 14.2 8.5 6.6 60 3.7 SSE 26 39 14 21 1027.9 1028.1 0.0
22/03:00pm 14.4 8.6 6.3 58 3.9 SSE 26 37 14 20 1027.5 1027.6 0.0
22/02:30pm 14.6 9.6 6.4 58 4.0 S 22 35 12 19 1027.2 1027.3 0.0
22/02:00pm 15.4 10.6 7.2 58 4.1 SSE 22 33 12 18 1027.2 1027.3 0.0
22/01:30pm 15.1 9.8 6.7 57 4.1 SSE 24 35 13 19 1027.3 1027.4 0.0
22/01:00pm 14.8 8.7 6.6 58 4.0 S 28 39 15 21 1027.4 1027.5 0.0
22/12:30pm 14.4 8.1 5.7 56 4.2 SSE 28 41 15 22 1027.4 1027.5 0.0
22/12:00pm 14.7 9.9 5.8 55 4.3 SSE 20 33 11 18 1027.6 1027.8 0.0
22/11:30am 14.1 7.9 6.0 58 3.9 SSE 28 39 15 21 1027.9 1028.1 0.0
22/11:00am 13.8 7.4 5.2 56 4.0 S 28 43 15 23 1028.0 1028.2 0.0
22/10:30am 13.4 8.1 5.1 57 3.9 S 22 33 12 18 1027.8 1028.0 0.0
22/10:00am 12.9 8.2 5.3 60 3.6 SSE 19 30 10 16 1027.7 1027.9 0.0
22/09:30am 12.3 7.0 5.2 62 3.3 SSE 22 37 12 20 1027.6 1027.8 0.0
22/09:00am 11.4 6.6 5.7 68 2.7 SSE 20 32 11 17 1027.5 1027.6 0.0
22/08:30am 10.3 6.6 6.5 77 1.8 SSE 15 20 8 11 1027.3 1027.4 0.0
22/08:00am 9.7 6.3 6.1 78 1.7 SSE 13 19 7 10 1027.2 1027.3 0.0
22/07:30am 9.2 6.2 6.1 81 1.4 S 11 15 6 8 1026.8 1027.0 0.0
22/07:00am 9.2 5.5 6.3 82 1.3 S 15 22 8 12 1026.5 1026.7 0.0
22/06:30am 9.2 5.9 6.6 84 1.2 S 13 17 7 9 1025.9 1026.1 0.0
22/06:00am 9.0 5.7 6.6 85 1.1 SSE 13 20 7 11 1025.4 1025.6 0.0
22/05:30am 9.5 6.2 6.6 82 1.4 S 13 17 7 9 1025.2 1025.4 0.0
22/05:00am 10.2 6.7 7.1 81 1.5 S 15 22 8 12 1025.0 1025.2 0.0
22/04:30am 9.9 6.0 7.0 82 1.4 SSE 17 24 9 13 1025.0 1025.2 0.0
22/04:00am 10.1 6.2 7.2 82 1.4 S 17 20 9 11 1025.0 1025.2 0.0
22/03:30am 9.6 6.9 7.2 85 1.1 SSW 11 17 6 9 1025.0 1025.2 0.0
22/03:00am 9.4 6.7 7.2 86 1.0 S 11 17 6 9 1025.0 1025.2 0.0
22/02:30am 9.9 7.2 7.3 84 1.2 SSW 11 17 6 9 1024.9 1025.1 0.0
22/02:00am 10.3 7.3 7.5 83 1.3 S 13 19 7 10 1024.6 1024.8 0.0
22/01:30am 10.5 6.7 7.7 83 1.4 SSE 17 22 9 12 1024.4 1024.6 0.0
22/01:00am 11.1 5.7 8.0 81 1.5 SSE 26 39 14 21 1024.2 1024.4 0.0
22/12:30am 11.0 6.0 8.2 83 1.4 SSE 24 32 13 17 1024.0 1024.2 0.0
22/12:00am 10.5 6.3 8.3 86 1.1 SSE 20 30 11 16 1023.8 1024.0 0.0
 
Date/Time
EST
Temp
°C
App
Temp
°C
Dew
Point
Rel
Hum
%
Delta-T
°C
Wind Press
QNH
hPa
Press
MSL
hPa
Rain
since 9 am
mm
Dir
 
Spd
km/h
Gust
km/h
Spd
kts
Gust
kts
21/11:30pm 10.3 6.7 8.2 87 1.0 S 17 22 9 12 1023.7 1023.9 0.0
21/11:00pm 9.8 6.8 7.7 87 1.0 S 13 19 7 10 1023.8 1024.0 0.0
21/10:30pm 6.5 4.8 5.8 95 0.3 SW 4 11 2 6 1024.0 1024.2 0.0
21/10:00pm 6.6 5.2 5.7 94 0.4 S 2 7 1 4 1024.0 1024.2 0.0
21/09:30pm 7.3 6.4 6.1 92 0.5 CALM 0 4 0 2 1024.1 1024.3 0.0
21/09:00pm 7.4 6.5 5.9 90 0.7 CALM 0 0 0 0 1024.0 1024.2 0.0
21/08:30pm 8.9 7.0 6.7 86 1.0 SSW 6 7 3 4 1023.8 1024.0 0.0
21/08:00pm 9.2 7.3 6.6 84 1.2 SSW 6 7 3 4 1023.8 1024.0 0.0
21/07:30pm 10.7 7.9 7.0 78 1.8 S 11 19 6 10 1023.8 1024.0 0.0
21/07:00pm 11.4 7.9 7.1 75 2.1 S 15 26 8 14 1023.6 1023.8 0.0
21/06:30pm 11.5 9.1 7.2 75 2.1 S 9 17 5 9 1023.5 1023.7 0.0
21/06:00pm 11.5 9.1 7.2 75 2.1 SSW 9 13 5 7 1023.2 1023.3 0.0
21/05:30pm 11.7 8.5 6.8 72 2.4 S 13 28 7 15 1022.9 1023.0 0.0
21/05:00pm 12.1 8.1 6.8 70 2.5 SSE 17 30 9 16 1022.8 1022.9 0.0
21/04:30pm 12.3 7.8 6.8 69 2.7 S 20 30 11 16 1022.6 1022.7 0.0
21/04:00pm 13.1 8.7 6.7 65 3.1 SSE 19 26 10 14 1022.3 1022.4 0.0
21/03:30pm 13.9 9.6 7.0 63 3.4 SSE 19 30 10 16 1021.9 1022.0 0.0
21/03:00pm 13.6 9.2 7.4 66 3.1 SSE 20 28 11 15 1021.7 1021.9 0.0
21/02:30pm 13.7 8.4 6.8 63 3.4 SSE 24 30 13 16 1021.4 1021.6 0.0
21/02:00pm 14.0 9.7 6.8 62 3.5 SSE 19 30 10 16 1021.4 1021.6 0.0
21/01:30pm 14.7 10.3 7.5 62 3.6 SSE 20 28 11 15 1021.5 1021.7 0.0
21/01:00pm 13.9 10.4 7.0 63 3.4 S 15 26 8 14 1021.9 1022.0 0.0
21/12:30pm 13.3 9.9 7.7 69 2.8 S 15 24 8 13 1022.4 1022.5 0.0
21/12:00pm 12.8 8.4 6.6 66 3.0 S 19 32 10 17 1022.6 1022.7 0.0
21/11:30am 12.7 8.4 7.0 68 2.8 SSE 19 26 10 14 1023.1 1023.2 0.0
21/11:00am 11.8 7.4 6.7 71 2.4 S 19 28 10 15 1023.2 1023.3 0.0
21/10:30am 11.3 6.0 6.6 73 2.2 S 24 39 13 21 1023.0 1023.1 0.0
21/10:00am 10.6 5.9 6.0 73 2.1 S 20 28 11 15 1022.8 1022.9 0.0
21/09:30am 9.8 6.4 6.0 77 1.8 S 13 20 7 11 1022.7 1022.8 0.0
21/09:00am 9.7 5.6 6.1 78 1.7 S 17 28 9 15 1022.6 1022.7 4.6
21/08:30am 9.6 5.9 6.1 79 1.6 S 15 20 8 11 1022.2 1022.3 4.6
21/08:00am 9.4 5.7 6.1 80 1.5 S 15 22 8 12 1021.7 1021.9 4.6
21/07:30am 9.2 6.2 5.9 80 1.5 S 11 17 6 9 1021.4 1021.6 4.6
21/07:00am 9.5 6.1 6.0 79 1.6 S 13 20 7 11 1021.1 1021.3 4.6
21/06:30am 9.4 6.0 6.1 80 1.5 S 13 19 7 10 1020.7 1020.9 4.6
21/06:00am 9.5 6.5 6.2 80 1.5 S 11 19 6 10 1020.5 1020.7 4.6
21/05:30am 9.4 5.7 6.1 80 1.5 S 15 24 8 13 1020.2 1020.4 4.6
21/05:00am 9.5 5.9 6.6 82 1.4 S 15 20 8 11 1020.0 1020.2 4.6
21/04:30am 9.4 7.4 7.3 87 1.0 SSW 7 13 4 7 1019.9 1020.1 4.6
21/04:00am 9.5 6.8 7.4 87 1.0 SSW 11 20 6 11 1019.7 1019.9 4.6
21/03:30am 9.4 7.7 7.7 89 0.8 SSW 6 9 3 5 1019.8 1020.0 4.6
21/03:00am 9.5 7.8 7.6 88 0.9 SSW 6 11 3 6 1019.7 1019.9 4.6
21/02:30am 9.6 7.9 7.7 88 0.9 SSW 6 13 3 7 1019.7 1019.9 4.4
21/02:00am 9.9 7.7 7.7 86 1.1 SSW 9 13 5 7 1019.6 1019.8 4.4
21/01:30am 10.1 7.8 7.5 84 1.3 SSW 9 15 5 8 1019.3 1019.4 4.4
21/01:00am 10.1 7.4 7.5 84 1.3 SSW 11 17 6 9 1019.2 1019.3 4.4
21/12:30am 10.0 7.8 7.8 86 1.1 SW 9 15 5 8 1019.0 1019.1 4.4
21/12:00am 9.7 7.5 7.8 88 0.9 SW 9 15 5 8 1018.9 1019.0 4.4
 
Date/Time
EST
Temp
°C
App
Temp
°C
Dew
Point
Rel
Hum
%
Delta-T
°C
Wind Press
QNH
hPa
Press
MSL
hPa
Rain
since 9 am
mm
Dir
 
Spd
km/h
Gust
km/h
Spd
kts
Gust
kts
20/11:30pm 9.8 6.8 7.6 86 1.1 SW 13 20 7 11 1018.7 1018.8 4.4
20/11:00pm 10.0 7.4 7.9 87 1.0 SSW 11 17 6 9 1018.6 1018.7 4.4
20/10:30pm 10.6 7.7 8.2 85 1.2 SW 13 22 7 12 1018.6 1018.7 4.4
20/10:00pm 10.9 8.4 8.3 84 1.3 SW 11 19 6 10 1018.5 1018.6 4.4
20/09:30pm 11.0 8.6 8.6 85 1.2 SW 11 17 6 9 1018.4 1018.5 4.4
20/09:00pm 11.1 8.3 8.5 84 1.3 SW 13 19 7 10 1018.1 1018.2 4.4
20/08:30pm 11.0 7.8 8.6 85 1.2 SW 15 28 8 15 1017.9 1018.0 4.4

Other Formats:

Comma delimited format used in spreadsheet applications
http://www.bom.gov.au/fwo/IDV60801/IDV60801.94855.axf

JavaScript Object Notation format (JSON) in row-major order
http://www.bom.gov.au/fwo/IDV60801/IDV60801.94855.json